sensor_id;sensor_type;location;lat;lon;timestamp;temperature;humidity
15095;DHT22;7648;52.264;9.632;2024-02-14T00:01:07;7.20;99.90
15095;DHT22;7648;52.264;9.632;2024-02-14T00:05:11;7.20;99.90
15095;DHT22;7648;52.264;9.632;2024-02-14T00:09:13;7.20;99.90
15095;DHT22;7648;52.264;9.632;2024-02-14T00:13:15;7.10;99.90
15095;DHT22;7648;52.264;9.632;2024-02-14T00:17:18;7.20;99.90
15095;DHT22;7648;52.264;9.632;2024-02-14T00:21:22;7.20;99.90
15095;DHT22;7648;52.264;9.632;2024-02-14T00:25:24;7.20;99.90
15095;DHT22;7648;52.264;9.632;2024-02-14T00:29:26;7.20;99.90
15095;DHT22;7648;52.264;9.632;2024-02-14T00:33:28;7.10;99.90
15095;DHT22;7648;52.264;9.632;2024-02-14T00:37:32;7.20;99.90
15095;DHT22;7648;52.264;9.632;2024-02-14T00:41:34;7.20;99.90
15095;DHT22;7648;52.264;9.632;2024-02-14T00:45:36;7.10;99.90
15095;DHT22;7648;52.264;9.632;2024-02-14T00:49:39;7.00;99.90
15095;DHT22;7648;52.264;9.632;2024-02-14T00:53:43;7.00;99.90
15095;DHT22;7648;52.264;9.632;2024-02-14T00:57:45;6.80;99.90
15095;DHT22;7648;52.264;9.632;2024-02-14T01:01:47;6.80;99.90
15095;DHT22;7648;52.264;9.632;2024-02-14T01:05:49;6.70;99.90
15095;DHT22;7648;52.264;9.632;2024-02-14T01:09:52;6.60;99.90
15095;DHT22;7648;52.264;9.632;2024-02-14T01:13:54;6.60;99.90
15095;DHT22;7648;52.264;9.632;2024-02-14T01:17:56;6.60;99.90
15095;DHT22;7648;52.264;9.632;2024-02-14T01:21:58;6.60;99.90
15095;DHT22;7648;52.264;9.632;2024-02-14T01:26:02;6.70;99.90
15095;DHT22;7648;52.264;9.632;2024-02-14T01:30:05;6.70;99.90
15095;DHT22;7648;52.264;9.632;2024-02-14T01:34:07;6.80;99.90
15095;DHT22;7648;52.264;9.632;2024-02-14T01:38:09;6.80;99.90
15095;DHT22;7648;52.264;9.632;2024-02-14T01:42:14;6.90;99.90
15095;DHT22;7648;52.264;9.632;2024-02-14T01:46:16;6.90;99.90
15095;DHT22;7648;52.264;9.632;2024-02-14T01:50:18;7.00;99.90
15095;DHT22;7648;52.264;9.632;2024-02-14T01:54:29;7.00;99.90
15095;DHT22;7648;52.264;9.632;2024-02-14T01:58:34;7.00;99.90
15095;DHT22;7648;52.264;9.632;2024-02-14T02:02:36;7.00;99.90
15095;DHT22;7648;52.264;9.632;2024-02-14T02:06:41;7.10;99.90
15095;DHT22;7648;52.264;9.632;2024-02-14T02:10:43;7.20;99.90
15095;DHT22;7648;52.264;9.632;2024-02-14T02:14:47;7.20;99.90
15095;DHT22;7648;52.264;9.632;2024-02-14T02:18:49;7.20;99.90
15095;DHT22;7648;52.264;9.632;2024-02-14T02:22:52;7.20;99.90
15095;DHT22;7648;52.264;9.632;2024-02-14T02:26:54;7.20;99.90
15095;DHT22;7648;52.264;9.632;2024-02-14T02:30:57;7.20;99.90
15095;DHT22;7648;52.264;9.632;2024-02-14T02:34:59;7.20;99.90
15095;DHT22;7648;52.264;9.632;2024-02-14T02:39:03;7.20;99.90
15095;DHT22;7648;52.264;9.632;2024-02-14T02:43:05;7.30;99.90
15095;DHT22;7648;52.264;9.632;2024-02-14T02:47:07;7.20;99.90
15095;DHT22;7648;52.264;9.632;2024-02-14T02:51:11;7.20;99.90
15095;DHT22;7648;52.264;9.632;2024-02-14T02:55:15;7.20;99.90
15095;DHT22;7648;52.264;9.632;2024-02-14T02:59:17;7.20;99.90
15095;DHT22;7648;52.264;9.632;2024-02-14T03:03:19;7.20;99.90
15095;DHT22;7648;52.264;9.632;2024-02-14T03:07:22;7.20;99.90
15095;DHT22;7648;52.264;9.632;2024-02-14T03:11:26;7.20;99.90
15095;DHT22;7648;52.264;9.632;2024-02-14T03:15:28;7.20;99.90
15095;DHT22;7648;52.264;9.632;2024-02-14T03:19:31;7.20;99.90
15095;DHT22;7648;52.264;9.632;2024-02-14T03:23:38;7.20;99.90
15095;DHT22;7648;52.264;9.632;2024-02-14T03:27:43;7.30;99.90
15095;DHT22;7648;52.264;9.632;2024-02-14T03:31:48;7.30;99.90
15095;DHT22;7648;52.264;9.632;2024-02-14T03:35:50;7.40;99.90
15095;DHT22;7648;52.264;9.632;2024-02-14T03:39:52;7.40;99.90
15095;DHT22;7648;52.264;9.632;2024-02-14T03:43:55;7.50;99.90
15095;DHT22;7648;52.264;9.632;2024-02-14T03:48:01;7.60;99.90
15095;DHT22;7648;52.264;9.632;2024-02-14T03:52:03;7.60;99.90
15095;DHT22;7648;52.264;9.632;2024-02-14T03:56:09;7.60;99.90
15095;DHT22;7648;52.264;9.632;2024-02-14T04:00:15;7.60;99.90
15095;DHT22;7648;52.264;9.632;2024-02-14T04:04:17;7.60;99.90
15095;DHT22;7648;52.264;9.632;2024-02-14T04:08:19;7.60;99.90
15095;DHT22;7648;52.264;9.632;2024-02-14T04:12:22;7.60;99.90
15095;DHT22;7648;52.264;9.632;2024-02-14T04:16:25;7.60;99.90
15095;DHT22;7648;52.264;9.632;2024-02-14T04:20:27;7.60;99.90
15095;DHT22;7648;52.264;9.632;2024-02-14T04:24:29;7.70;99.90
15095;DHT22;7648;52.264;9.632;2024-02-14T04:28:31;7.60;99.90
15095;DHT22;7648;52.264;9.632;2024-02-14T04:32:35;7.60;99.90
15095;DHT22;7648;52.264;9.632;2024-02-14T04:36:37;7.60;99.90
15095;DHT22;7648;52.264;9.632;2024-02-14T04:40:39;7.50;99.90
15095;DHT22;7648;52.264;9.632;2024-02-14T04:44:41;7.50;99.90
15095;DHT22;7648;52.264;9.632;2024-02-14T04:48:44;7.40;99.90
15095;DHT22;7648;52.264;9.632;2024-02-14T04:52:46;7.40;99.90
15095;DHT22;7648;52.264;9.632;2024-02-14T04:56:48;7.40;99.90
15095;DHT22;7648;52.264;9.632;2024-02-14T05:00:50;7.50;99.90
15095;DHT22;7648;52.264;9.632;2024-02-14T05:04:54;7.50;99.90
15095;DHT22;7648;52.264;9.632;2024-02-14T05:08:56;7.50;99.90
15095;DHT22;7648;52.264;9.632;2024-02-14T05:12:58;7.50;99.90
15095;DHT22;7648;52.264;9.632;2024-02-14T05:17:00;7.50;99.90
15095;DHT22;7648;52.264;9.632;2024-02-14T05:21:06;7.50;99.90
15095;DHT22;7648;52.264;9.632;2024-02-14T05:25:09;7.50;99.90
15095;DHT22;7648;52.264;9.632;2024-02-14T05:29:11;7.50;99.90
15095;DHT22;7648;52.264;9.632;2024-02-14T05:33:13;7.50;99.90
15095;DHT22;7648;52.264;9.632;2024-02-14T05:37:16;7.50;99.90
15095;DHT22;7648;52.264;9.632;2024-02-14T05:41:18;7.50;99.90
15095;DHT22;7648;52.264;9.632;2024-02-14T05:45:20;7.60;99.90
15095;DHT22;7648;52.264;9.632;2024-02-14T05:49:22;7.60;99.90
15095;DHT22;7648;52.264;9.632;2024-02-14T05:53:26;7.60;99.90
15095;DHT22;7648;52.264;9.632;2024-02-14T05:57:28;7.60;99.90
15095;DHT22;7648;52.264;9.632;2024-02-14T06:01:30;7.60;99.90
15095;DHT22;7648;52.264;9.632;2024-02-14T06:05:32;7.50;99.90
15095;DHT22;7648;52.264;9.632;2024-02-14T06:09:35;7.50;99.90
15095;DHT22;7648;52.264;9.632;2024-02-14T06:13:37;7.50;99.90
15095;DHT22;7648;52.264;9.632;2024-02-14T06:17:39;7.60;99.90
15095;DHT22;7648;52.264;9.632;2024-02-14T06:21:41;7.50;99.90
15095;DHT22;7648;52.264;9.632;2024-02-14T06:25:44;7.60;99.90
15095;DHT22;7648;52.264;9.632;2024-02-14T06:29:46;7.60;99.90
15095;DHT22;7648;52.264;9.632;2024-02-14T06:33:48;7.60;99.90
15095;DHT22;7648;52.264;9.632;2024-02-14T06:37:50;7.70;99.90
15095;DHT22;7648;52.264;9.632;2024-02-14T06:41:53;7.60;99.90
15095;DHT22;7648;52.264;9.632;2024-02-14T06:45:55;7.60;99.90
15095;DHT22;7648;52.264;9.632;2024-02-14T06:49:57;7.60;99.90
15095;DHT22;7648;52.264;9.632;2024-02-14T06:53:59;7.70;99.90
15095;DHT22;7648;52.264;9.632;2024-02-14T06:58:03;7.70;99.90
15095;DHT22;7648;52.264;9.632;2024-02-14T07:02:05;7.70;99.90
15095;DHT22;7648;52.264;9.632;2024-02-14T07:06:07;7.70;99.90
15095;DHT22;7648;52.264;9.632;2024-02-14T07:10:10;7.70;99.90
15095;DHT22;7648;52.264;9.632;2024-02-14T07:14:13;7.80;99.90
15095;DHT22;7648;52.264;9.632;2024-02-14T07:18:15;7.80;99.90
15095;DHT22;7648;52.264;9.632;2024-02-14T07:22:17;7.80;99.90
15095;DHT22;7648;52.264;9.632;2024-02-14T07:26:19;7.80;99.90
15095;DHT22;7648;52.264;9.632;2024-02-14T07:30:23;7.80;99.90
15095;DHT22;7648;52.264;9.632;2024-02-14T07:34:25;7.80;99.90
15095;DHT22;7648;52.264;9.632;2024-02-14T07:38:27;7.80;99.90
15095;DHT22;7648;52.264;9.632;2024-02-14T07:42:29;7.80;99.90
15095;DHT22;7648;52.264;9.632;2024-02-14T07:46:33;7.80;99.90
15095;DHT22;7648;52.264;9.632;2024-02-14T07:50:35;7.80;99.90
15095;DHT22;7648;52.264;9.632;2024-02-14T07:54:37;7.80;99.90
15095;DHT22;7648;52.264;9.632;2024-02-14T07:58:39;7.80;99.90
15095;DHT22;7648;52.264;9.632;2024-02-14T08:02:42;7.80;99.90
15095;DHT22;7648;52.264;9.632;2024-02-14T08:06:45;7.90;99.90
15095;DHT22;7648;52.264;9.632;2024-02-14T08:10:47;8.00;99.90
15095;DHT22;7648;52.264;9.632;2024-02-14T08:14:49;8.00;99.90
15095;DHT22;7648;52.264;9.632;2024-02-14T08:18:53;8.10;99.90
15095;DHT22;7648;52.264;9.632;2024-02-14T08:22:59;8.10;99.90
15095;DHT22;7648;52.264;9.632;2024-02-14T08:27:01;8.20;99.90
15095;DHT22;7648;52.264;9.632;2024-02-14T08:31:10;8.30;99.90
15095;DHT22;7648;52.264;9.632;2024-02-14T08:35:13;8.30;99.90
15095;DHT22;7648;52.264;9.632;2024-02-14T08:39:15;8.40;99.90
15095;DHT22;7648;52.264;9.632;2024-02-14T08:43:17;8.40;99.90
15095;DHT22;7648;52.264;9.632;2024-02-14T08:47:19;8.50;99.90
15095;DHT22;7648;52.264;9.632;2024-02-14T08:51:23;8.60;99.90
15095;DHT22;7648;52.264;9.632;2024-02-14T08:55:25;8.60;99.90
15095;DHT22;7648;52.264;9.632;2024-02-14T08:59:27;8.70;99.90
15095;DHT22;7648;52.264;9.632;2024-02-14T09:03:29;8.90;99.90
15095;DHT22;7648;52.264;9.632;2024-02-14T09:07:33;8.90;99.90
15095;DHT22;7648;52.264;9.632;2024-02-14T09:11:37;9.10;99.90
15095;DHT22;7648;52.264;9.632;2024-02-14T09:15:39;9.10;99.90
15095;DHT22;7648;52.264;9.632;2024-02-14T09:19:41;9.20;99.90
15095;DHT22;7648;52.264;9.632;2024-02-14T09:23:44;9.20;99.90
15095;DHT22;7648;52.264;9.632;2024-02-14T09:27:46;9.30;99.90
15095;DHT22;7648;52.264;9.632;2024-02-14T09:31:50;9.40;99.90
15095;DHT22;7648;52.264;9.632;2024-02-14T09:35:52;9.50;99.90
15095;DHT22;7648;52.264;9.632;2024-02-14T09:39:56;9.60;99.90
15095;DHT22;7648;52.264;9.632;2024-02-14T09:43:59;9.60;99.90
15095;DHT22;7648;52.264;9.632;2024-02-14T09:48:01;9.70;99.90
15095;DHT22;7648;52.264;9.632;2024-02-14T09:52:05;9.80;99.90
15095;DHT22;7648;52.264;9.632;2024-02-14T09:56:11;9.90;99.90
15095;DHT22;7648;52.264;9.632;2024-02-14T10:00:15;10.00;99.90
15095;DHT22;7648;52.264;9.632;2024-02-14T10:09:40;10.00;99.90
15095;DHT22;7648;52.264;9.632;2024-02-14T10:13:45;10.10;99.90
15095;DHT22;7648;52.264;9.632;2024-02-14T10:17:47;10.10;99.90
15095;DHT22;7648;52.264;9.632;2024-02-14T10:21:56;10.20;99.90
15095;DHT22;7648;52.264;9.632;2024-02-14T10:25:59;10.20;99.90
15095;DHT22;7648;52.264;9.632;2024-02-14T10:30:03;10.40;99.90
15095;DHT22;7648;52.264;9.632;2024-02-14T10:34:06;10.50;99.90
15095;DHT22;7648;52.264;9.632;2024-02-14T10:38:09;10.50;99.90
15095;DHT22;7648;52.264;9.632;2024-02-14T10:42:12;10.70;99.90
15095;DHT22;7648;52.264;9.632;2024-02-14T10:46:20;10.80;99.90
15095;DHT22;7648;52.264;9.632;2024-02-14T10:50:24;11.00;99.90
15095;DHT22;7648;52.264;9.632;2024-02-14T10:54:27;11.10;99.90
15095;DHT22;7648;52.264;9.632;2024-02-14T10:58:30;11.10;99.90
15095;DHT22;7648;52.264;9.632;2024-02-14T11:02:36;11.00;99.90
15095;DHT22;7648;52.264;9.632;2024-02-14T11:06:45;11.00;99.90
15095;DHT22;7648;52.264;9.632;2024-02-14T11:10:53;11.00;99.90
15095;DHT22;7648;52.264;9.632;2024-02-14T11:14:57;11.00;99.90
15095;DHT22;7648;52.264;9.632;2024-02-14T11:19:09;11.00;99.90
15095;DHT22;7648;52.264;9.632;2024-02-14T11:23:11;11.00;99.90
15095;DHT22;7648;52.264;9.632;2024-02-14T11:27:14;11.10;99.90
15095;DHT22;7648;52.264;9.632;2024-02-14T11:31:16;11.20;99.90
15095;DHT22;7648;52.264;9.632;2024-02-14T11:35:20;11.30;99.90
15095;DHT22;7648;52.264;9.632;2024-02-14T11:39:22;11.40;99.90
15095;DHT22;7648;52.264;9.632;2024-02-14T11:43:24;11.50;99.90
15095;DHT22;7648;52.264;9.632;2024-02-14T11:47:26;11.50;99.90
15095;DHT22;7648;52.264;9.632;2024-02-14T11:51:30;11.50;99.90
15095;DHT22;7648;52.264;9.632;2024-02-14T11:55:32;11.50;99.90
15095;DHT22;7648;52.264;9.632;2024-02-14T11:59:37;11.50;99.90
15095;DHT22;7648;52.264;9.632;2024-02-14T12:03:39;11.50;99.90
15095;DHT22;7648;52.264;9.632;2024-02-14T12:07:43;11.40;99.90
15095;DHT22;7648;52.264;9.632;2024-02-14T12:11:46;11.40;99.90
15095;DHT22;7648;52.264;9.632;2024-02-14T12:15:49;11.40;99.90
15095;DHT22;7648;52.264;9.632;2024-02-14T12:19:51;11.40;99.90
15095;DHT22;7648;52.264;9.632;2024-02-14T12:23:59;11.30;99.90
15095;DHT22;7648;52.264;9.632;2024-02-14T12:28:01;11.40;99.90
15095;DHT22;7648;52.264;9.632;2024-02-14T12:32:04;11.20;99.90
15095;DHT22;7648;52.264;9.632;2024-02-14T12:36:06;11.20;99.90
15095;DHT22;7648;52.264;9.632;2024-02-14T12:40:10;11.20;99.90
15095;DHT22;7648;52.264;9.632;2024-02-14T12:44:12;11.20;99.90
15095;DHT22;7648;52.264;9.632;2024-02-14T12:48:22;11.20;99.90
15095;DHT22;7648;52.264;9.632;2024-02-14T12:52:24;11.20;99.90
15095;DHT22;7648;52.264;9.632;2024-02-14T12:56:27;11.30;99.90
15095;DHT22;7648;52.264;9.632;2024-02-14T13:00:29;11.30;99.90
15095;DHT22;7648;52.264;9.632;2024-02-14T13:04:32;11.30;99.90
15095;DHT22;7648;52.264;9.632;2024-02-14T13:08:35;11.40;99.90
15095;DHT22;7648;52.264;9.632;2024-02-14T13:12:41;11.40;99.90
15095;DHT22;7648;52.264;9.632;2024-02-14T13:16:44;11.30;99.90
15095;DHT22;7648;52.264;9.632;2024-02-14T13:20:46;11.20;99.90
15095;DHT22;7648;52.264;9.632;2024-02-14T13:24:48;11.20;99.90
15095;DHT22;7648;52.264;9.632;2024-02-14T13:28:52;11.20;99.90
15095;DHT22;7648;52.264;9.632;2024-02-14T13:32:54;11.20;99.90
15095;DHT22;7648;52.264;9.632;2024-02-14T13:36:57;11.30;99.90
15095;DHT22;7648;52.264;9.632;2024-02-14T13:40:59;11.50;99.90
15095;DHT22;7648;52.264;9.632;2024-02-14T13:45:03;11.70;99.90
15095;DHT22;7648;52.264;9.632;2024-02-14T13:49:06;11.70;99.90
15095;DHT22;7648;52.264;9.632;2024-02-14T13:53:08;11.60;99.90
15095;DHT22;7648;52.264;9.632;2024-02-14T13:57:09;11.50;99.90
15095;DHT22;7648;52.264;9.632;2024-02-14T14:01:13;11.40;99.90
15095;DHT22;7648;52.264;9.632;2024-02-14T14:05:15;11.30;99.90
15095;DHT22;7648;52.264;9.632;2024-02-14T14:09:17;11.30;99.90
15095;DHT22;7648;52.264;9.632;2024-02-14T14:13:19;11.30;99.90
15095;DHT22;7648;52.264;9.632;2024-02-14T14:17:22;11.20;99.90
15095;DHT22;7648;52.264;9.632;2024-02-14T14:21:25;11.30;99.90
15095;DHT22;7648;52.264;9.632;2024-02-14T14:25:26;11.30;99.90
15095;DHT22;7648;52.264;9.632;2024-02-14T14:29:29;11.20;99.90
15095;DHT22;7648;52.264;9.632;2024-02-14T14:33:33;11.20;99.90
15095;DHT22;7648;52.264;9.632;2024-02-14T14:37:35;11.10;99.90
15095;DHT22;7648;52.264;9.632;2024-02-14T14:41:37;11.10;99.90
15095;DHT22;7648;52.264;9.632;2024-02-14T14:45:39;11.20;99.90
15095;DHT22;7648;52.264;9.632;2024-02-14T14:49:43;11.10;99.90
15095;DHT22;7648;52.264;9.632;2024-02-14T14:53:45;11.10;99.90
15095;DHT22;7648;52.264;9.632;2024-02-14T14:57:47;11.00;99.90
15095;DHT22;7648;52.264;9.632;2024-02-14T15:01:49;11.00;99.90
15095;DHT22;7648;52.264;9.632;2024-02-14T15:05:53;10.90;99.90
15095;DHT22;7648;52.264;9.632;2024-02-14T15:09:55;10.90;99.90
15095;DHT22;7648;52.264;9.632;2024-02-14T15:13:57;10.90;99.90
15095;DHT22;7648;52.264;9.632;2024-02-14T15:17:59;10.80;99.90
15095;DHT22;7648;52.264;9.632;2024-02-14T15:22:02;10.80;99.90
15095;DHT22;7648;52.264;9.632;2024-02-14T15:26:04;10.80;99.90
15095;DHT22;7648;52.264;9.632;2024-02-14T15:30:08;10.70;99.90
15095;DHT22;7648;52.264;9.632;2024-02-14T15:34:27;10.80;99.90
15095;DHT22;7648;52.264;9.632;2024-02-14T15:38:32;10.70;99.90
15095;DHT22;7648;52.264;9.632;2024-02-14T15:42:34;10.80;99.90
15095;DHT22;7648;52.264;9.632;2024-02-14T15:46:36;10.80;99.90
15095;DHT22;7648;52.264;9.632;2024-02-14T15:50:38;10.80;99.90
15095;DHT22;7648;52.264;9.632;2024-02-14T15:54:41;10.80;99.90
15095;DHT22;7648;52.264;9.632;2024-02-14T15:58:45;10.80;99.90
15095;DHT22;7648;52.264;9.632;2024-02-14T16:02:47;10.80;99.90
15095;DHT22;7648;52.264;9.632;2024-02-14T16:06:49;10.80;99.90
15095;DHT22;7648;52.264;9.632;2024-02-14T16:10:52;10.90;99.90
15095;DHT22;7648;52.264;9.632;2024-02-14T16:14:56;10.80;99.90
15095;DHT22;7648;52.264;9.632;2024-02-14T16:18:59;10.80;99.90
15095;DHT22;7648;52.264;9.632;2024-02-14T16:23:01;10.80;99.90
15095;DHT22;7648;52.264;9.632;2024-02-14T16:27:04;10.70;99.90
15095;DHT22;7648;52.264;9.632;2024-02-14T16:31:06;10.70;99.90
15095;DHT22;7648;52.264;9.632;2024-02-14T16:35:09;10.70;99.90
15095;DHT22;7648;52.264;9.632;2024-02-14T16:39:11;10.80;99.90
15095;DHT22;7648;52.264;9.632;2024-02-14T16:43:14;10.70;99.90
15095;DHT22;7648;52.264;9.632;2024-02-14T16:47:16;10.80;99.90
15095;DHT22;7648;52.264;9.632;2024-02-14T16:51:18;10.80;99.90
15095;DHT22;7648;52.264;9.632;2024-02-14T16:55:21;10.70;99.90
15095;DHT22;7648;52.264;9.632;2024-02-14T16:59:24;10.80;99.90
15095;DHT22;7648;52.264;9.632;2024-02-14T17:03:27;10.70;99.90
15095;DHT22;7648;52.264;9.632;2024-02-14T17:07:29;10.70;99.90
15095;DHT22;7648;52.264;9.632;2024-02-14T17:11:32;10.60;99.90
15095;DHT22;7648;52.264;9.632;2024-02-14T17:15:35;10.60;99.90
15095;DHT22;7648;52.264;9.632;2024-02-14T17:19:37;10.60;99.90
15095;DHT22;7648;52.264;9.632;2024-02-14T17:23:39;10.60;99.90
15095;DHT22;7648;52.264;9.632;2024-02-14T17:27:41;10.60;99.90
15095;DHT22;7648;52.264;9.632;2024-02-14T17:31:45;10.60;99.90
15095;DHT22;7648;52.264;9.632;2024-02-14T17:35:48;10.60;99.90
15095;DHT22;7648;52.264;9.632;2024-02-14T17:39:50;10.60;99.90
15095;DHT22;7648;52.264;9.632;2024-02-14T17:43:52;10.60;99.90
15095;DHT22;7648;52.264;9.632;2024-02-14T17:47:56;10.60;99.90
15095;DHT22;7648;52.264;9.632;2024-02-14T17:51:58;10.60;99.90
15095;DHT22;7648;52.264;9.632;2024-02-14T17:56:00;10.60;99.90
15095;DHT22;7648;52.264;9.632;2024-02-14T18:00:04;10.60;99.90
15095;DHT22;7648;52.264;9.632;2024-02-14T18:04:14;10.60;99.90
15095;DHT22;7648;52.264;9.632;2024-02-14T18:08:16;10.60;99.90
15095;DHT22;7648;52.264;9.632;2024-02-14T18:12:18;10.60;99.90
15095;DHT22;7648;52.264;9.632;2024-02-14T18:16:21;10.60;99.90
15095;DHT22;7648;52.264;9.632;2024-02-14T18:20:24;10.60;99.90
15095;DHT22;7648;52.264;9.632;2024-02-14T18:24:26;10.60;99.90
15095;DHT22;7648;52.264;9.632;2024-02-14T18:28:29;10.70;99.90
15095;DHT22;7648;52.264;9.632;2024-02-14T18:32:31;10.60;99.90
15095;DHT22;7648;52.264;9.632;2024-02-14T18:36:34;10.60;99.90
15095;DHT22;7648;52.264;9.632;2024-02-14T18:40:36;10.60;99.90
15095;DHT22;7648;52.264;9.632;2024-02-14T18:44:40;10.60;99.90
15095;DHT22;7648;52.264;9.632;2024-02-14T18:48:42;10.60;99.90
15095;DHT22;7648;52.264;9.632;2024-02-14T18:52:45;10.50;99.90
15095;DHT22;7648;52.264;9.632;2024-02-14T18:56:50;10.60;99.90
15095;DHT22;7648;52.264;9.632;2024-02-14T19:00:51;10.70;99.90
15095;DHT22;7648;52.264;9.632;2024-02-14T19:04:54;10.60;99.90
15095;DHT22;7648;52.264;9.632;2024-02-14T19:08:57;10.60;99.90
15095;DHT22;7648;52.264;9.632;2024-02-14T19:12:59;10.60;99.90
15095;DHT22;7648;52.264;9.632;2024-02-14T19:17:02;10.60;99.90
15095;DHT22;7648;52.264;9.632;2024-02-14T19:21:05;10.60;99.90
15095;DHT22;7648;52.264;9.632;2024-02-14T19:25:08;10.70;99.90
15095;DHT22;7648;52.264;9.632;2024-02-14T19:29:10;10.70;99.90
15095;DHT22;7648;52.264;9.632;2024-02-14T19:33:12;10.70;99.90
15095;DHT22;7648;52.264;9.632;2024-02-14T19:37:14;10.70;99.90
15095;DHT22;7648;52.264;9.632;2024-02-14T19:41:18;10.70;99.90
15095;DHT22;7648;52.264;9.632;2024-02-14T19:45:19;10.60;99.90
15095;DHT22;7648;52.264;9.632;2024-02-14T19:49:21;10.60;99.90
15095;DHT22;7648;52.264;9.632;2024-02-14T19:53:23;10.60;99.90
15095;DHT22;7648;52.264;9.632;2024-02-14T19:57:27;10.60;99.90
15095;DHT22;7648;52.264;9.632;2024-02-14T20:01:31;10.60;99.90
15095;DHT22;7648;52.264;9.632;2024-02-14T20:05:33;10.70;99.90
15095;DHT22;7648;52.264;9.632;2024-02-14T20:09:37;10.60;99.90
15095;DHT22;7648;52.264;9.632;2024-02-14T20:13:40;10.60;99.90
15095;DHT22;7648;52.264;9.632;2024-02-14T20:17:42;10.60;99.90
15095;DHT22;7648;52.264;9.632;2024-02-14T20:21:47;10.60;99.90
15095;DHT22;7648;52.264;9.632;2024-02-14T20:25:53;10.70;99.90
15095;DHT22;7648;52.264;9.632;2024-02-14T20:29:56;10.70;99.90
15095;DHT22;7648;52.264;9.632;2024-02-14T20:33:59;10.70;99.90
15095;DHT22;7648;52.264;9.632;2024-02-14T20:38:04;10.70;99.90
15095;DHT22;7648;52.264;9.632;2024-02-14T20:42:10;10.70;99.90
15095;DHT22;7648;52.264;9.632;2024-02-14T20:46:16;10.70;99.90
15095;DHT22;7648;52.264;9.632;2024-02-14T20:50:19;10.70;99.90
15095;DHT22;7648;52.264;9.632;2024-02-14T20:54:21;10.80;99.90
15095;DHT22;7648;52.264;9.632;2024-02-14T20:58:23;10.80;99.90
15095;DHT22;7648;52.264;9.632;2024-02-14T21:02:26;10.80;99.90
15095;DHT22;7648;52.264;9.632;2024-02-14T21:06:28;10.70;99.90
15095;DHT22;7648;52.264;9.632;2024-02-14T21:10:30;10.70;99.90
15095;DHT22;7648;52.264;9.632;2024-02-14T21:14:33;10.80;99.90
15095;DHT22;7648;52.264;9.632;2024-02-14T21:18:36;10.80;99.90
15095;DHT22;7648;52.264;9.632;2024-02-14T21:22:38;10.80;99.90
15095;DHT22;7648;52.264;9.632;2024-02-14T21:26:40;10.80;99.90
15095;DHT22;7648;52.264;9.632;2024-02-14T21:30:44;10.80;99.90
15095;DHT22;7648;52.264;9.632;2024-02-14T21:34:47;10.80;99.90
15095;DHT22;7648;52.264;9.632;2024-02-14T21:38:49;10.80;99.90
15095;DHT22;7648;52.264;9.632;2024-02-14T21:42:51;10.90;99.90
15095;DHT22;7648;52.264;9.632;2024-02-14T21:46:53;10.90;99.90
15095;DHT22;7648;52.264;9.632;2024-02-14T21:50:57;10.90;99.90
15095;DHT22;7648;52.264;9.632;2024-02-14T21:55:05;10.90;99.90
15095;DHT22;7648;52.264;9.632;2024-02-14T21:59:08;10.90;99.90
15095;DHT22;7648;52.264;9.632;2024-02-14T22:03:10;10.90;99.90
15095;DHT22;7648;52.264;9.632;2024-02-14T22:07:13;11.00;99.90
15095;DHT22;7648;52.264;9.632;2024-02-14T22:11:15;11.00;99.90
15095;DHT22;7648;52.264;9.632;2024-02-14T22:15:17;11.00;99.90
15095;DHT22;7648;52.264;9.632;2024-02-14T22:19:20;11.00;99.90
15095;DHT22;7648;52.264;9.632;2024-02-14T22:23:23;11.00;99.90
15095;DHT22;7648;52.264;9.632;2024-02-14T22:27:26;11.00;99.90
15095;DHT22;7648;52.264;9.632;2024-02-14T22:31:28;11.00;99.90
15095;DHT22;7648;52.264;9.632;2024-02-14T22:35:30;11.10;99.90
15095;DHT22;7648;52.264;9.632;2024-02-14T22:39:33;11.10;99.90
15095;DHT22;7648;52.264;9.632;2024-02-14T22:43:35;11.20;99.90
15095;DHT22;7648;52.264;9.632;2024-02-14T22:47:37;11.20;99.90
15095;DHT22;7648;52.264;9.632;2024-02-14T22:51:39;11.20;99.90
15095;DHT22;7648;52.264;9.632;2024-02-14T22:55:43;11.20;99.90
15095;DHT22;7648;52.264;9.632;2024-02-14T22:59:45;11.30;99.90
15095;DHT22;7648;52.264;9.632;2024-02-14T23:03:48;11.30;99.90
15095;DHT22;7648;52.264;9.632;2024-02-14T23:07:50;11.30;99.90
15095;DHT22;7648;52.264;9.632;2024-02-14T23:11:54;11.40;99.90
15095;DHT22;7648;52.264;9.632;2024-02-14T23:15:56;11.40;99.90
15095;DHT22;7648;52.264;9.632;2024-02-14T23:19:59;11.40;99.90
15095;DHT22;7648;52.264;9.632;2024-02-14T23:24:01;11.50;99.90
15095;DHT22;7648;52.264;9.632;2024-02-14T23:28:06;11.50;99.90
15095;DHT22;7648;52.264;9.632;2024-02-14T23:32:08;11.50;99.90
15095;DHT22;7648;52.264;9.632;2024-02-14T23:36:10;11.50;99.90
15095;DHT22;7648;52.264;9.632;2024-02-14T23:40:12;11.60;99.90
15095;DHT22;7648;52.264;9.632;2024-02-14T23:44:17;11.60;99.90
15095;DHT22;7648;52.264;9.632;2024-02-14T23:48:19;11.60;99.90
15095;DHT22;7648;52.264;9.632;2024-02-14T23:52:24;11.70;99.90
15095;DHT22;7648;52.264;9.632;2024-02-14T23:56:26;11.70;99.90
